Time;durP1;ratioP1;P1;durP2;ratioP2;P2;SDS_P1;SDS_P2;PMS_P1;PMS_P2;Temp;Humidity;BMP_temperature;BMP_pressure;BME280_temperature;BME280_humidity;BME280_pressure;Samples;Min_cycle;Max_cycle;Signal;HPM_P1;HPM_P2
2022/09/15 00:01:38;;;;;;;5.82;3.10;;;;;;;17.09;67.49;97303.31;10398143;28;20857;-56
2022/09/15 00:06:37;;;;;;;5.53;3.13;;;;;;;17.15;66.71;97307.53;10415873;28;20503;-56
2022/09/15 00:11:37;;;;;;;13.48;3.30;;;;;;;17.21;66.18;97309.91;10415659;28;20499;-56
2022/09/15 00:16:36;;;;;;;7.00;3.33;;;;;;;17.25;65.99;97305.44;10415698;28;20071;-56
2022/09/15 00:21:38;;;;;;;6.68;2.42;;;;;;;17.26;65.99;97308.00;10415522;28;20153;-56
2022/09/15 00:26:37;;;;;;;4.15;2.22;;;;;;;17.30;65.59;97309.59;10414570;28;20110;-56
2022/09/15 00:31:37;;;;;;;7.22;2.50;;;;;;;17.35;65.18;97299.81;10415000;28;20075;-56
2022/09/15 00:36:36;;;;;;;5.90;3.05;;;;;;;17.39;65.01;97294.47;10415070;28;20489;-56
2022/09/15 00:41:37;;;;;;;6.05;2.30;;;;;;;17.44;64.43;97289.91;10414246;28;20457;-56
2022/09/15 00:46:40;;;;;;;4.07;2.50;;;;;;;17.30;64.70;97288.59;10414675;28;20072;-56
2022/09/15 00:51:46;;;;;;;4.70;2.80;;;;;;;17.24;65.69;97303.69;10414523;28;20088;-56
2022/09/15 00:56:48;;;;;;;7.00;3.08;;;;;;;17.19;65.79;97303.00;10414475;28;20068;-56
2022/09/15 01:01:53;;;;;;;9.20;2.63;;;;;;;17.13;65.25;97290.97;10414646;28;20471;-56
2022/09/15 01:06:59;;;;;;;5.70;2.75;;;;;;;17.17;64.86;97295.22;10414125;28;20068;-56
2022/09/15 01:11:58;;;;;;;6.55;2.60;;;;;;;17.26;64.46;97302.75;10414548;28;20068;-56
2022/09/15 01:17:07;;;;;;;3.95;2.55;;;;;;;17.24;64.05;97301.97;10413526;28;20071;-56
2022/09/15 01:22:37;;;;;;;5.55;2.38;;;;;;;17.26;63.72;97300.16;10413641;28;20060;-56
2022/09/15 01:28:13;;;;;;;6.32;2.40;;;;;;;17.26;63.49;97318.50;10414206;28;20068;-56
2022/09/15 01:33:49;;;;;;;3.72;2.15;;;;;;;17.33;63.60;97309.50;10413091;28;20071;-56
2022/09/15 01:39:05;;;;;;;5.18;2.55;;;;;;;17.40;63.42;97322.38;10413751;28;20060;-56
2022/09/15 01:44:12;;;;;;;3.60;2.20;;;;;;;17.40;63.46;97319.75;10413187;28;20064;-56
2022/09/15 01:49:15;;;;;;;3.20;2.05;;;;;;;17.34;62.69;97320.84;10412993;28;20088;-56
2022/09/15 01:54:16;;;;;;;6.82;2.40;;;;;;;17.46;62.15;97312.53;10413414;28;20076;-56
2022/09/15 01:59:15;;;;;;;4.22;2.30;;;;;;;17.51;61.60;97296.63;10420833;28;20516;-56
2022/09/15 02:04:20;;;;;;;8.90;2.60;;;;;;;17.62;61.22;97310.22;10421142;28;20060;-56
2022/09/15 02:09:31;;;;;;;4.40;1.90;;;;;;;17.60;59.43;97295.44;10420587;28;20079;-56
2022/09/15 02:14:48;;;;;;;3.85;2.42;;;;;;;17.90;59.03;97309.25;10419772;28;20084;-56
2022/09/15 02:19:52;;;;;;;7.15;1.98;;;;;;;17.98;58.86;97302.75;10420883;28;20476;-56
2022/09/15 02:25:04;;;;;;;7.28;2.22;;;;;;;17.96;59.17;97288.88;10419797;28;20056;-56
2022/09/15 02:30:10;;;;;;;7.10;2.45;;;;;;;17.91;59.72;97295.19;10419833;28;20059;-56
2022/09/15 02:35:10;;;;;;;5.97;2.00;;;;;;;17.86;59.67;97294.50;10418980;28;20075;-56
2022/09/15 02:40:10;;;;;;;2.90;1.95;;;;;;;17.79;59.71;97291.25;10419565;28;20064;-56
2022/09/15 02:45:09;;;;;;;3.90;2.10;;;;;;;17.74;59.67;97294.00;10418864;28;20064;-56
2022/09/15 02:50:08;;;;;;;4.47;2.10;;;;;;;17.70;59.44;97296.81;10419516;28;20147;-56
2022/09/15 02:55:08;;;;;;;7.70;2.10;;;;;;;17.68;59.27;97296.88;10418562;28;20068;-56
2022/09/15 03:00:14;;;;;;;4.07;2.15;;;;;;;17.72;58.83;97295.84;10418977;28;20499;-56
2022/09/15 03:05:14;;;;;;;6.95;2.10;;;;;;;17.71;58.56;97291.50;10372293;28;20111;-56
2022/09/15 03:10:14;;;;;;;4.53;1.92;;;;;;;17.75;58.28;97294.88;10418827;28;20094;-56
2022/09/15 03:15:16;;;;;;;6.80;2.35;;;;;;;17.82;57.59;97308.66;10417331;28;20137;-56
2022/09/15 03:20:19;;;;;;;3.63;2.17;;;;;;;17.85;57.86;97311.19;10418091;28;20064;-56
2022/09/15 03:25:19;;;;;;;5.22;2.28;;;;;;;17.80;58.44;97320.97;10416930;28;20079;-56
2022/09/15 03:30:18;;;;;;;6.30;2.45;;;;;;;17.70;58.89;97320.44;10417868;28;20511;-56
2022/09/15 03:35:17;;;;;;;5.03;1.92;;;;;;;17.58;59.04;97319.09;10415254;28;20491;-56
2022/09/15 03:40:16;;;;;;;;;;;;;;;17.55;59.34;97303.50;10415708;28;20024;-56
2022/09/15 03:45:15;;;;;;;6.37;2.30;;;;;;;17.51;59.10;97301.88;10414447;28;20372;-56
2022/09/15 03:50:14;;;;;;;4.55;2.33;;;;;;;17.50;59.01;97287.91;10414190;28;20511;-56
2022/09/15 03:55:13;;;;;;;8.45;2.97;;;;;;;17.55;58.63;97293.00;10415365;28;20064;-56
2022/09/15 04:00:13;;;;;;;8.68;2.33;;;;;;;17.58;58.27;97287.63;10415000;28;20056;-56
2022/09/15 04:05:12;;;;;;;4.43;1.90;;;;;;;17.65;57.77;97278.63;10414803;28;20532;-56
2022/09/15 04:10:11;;;;;;;4.32;2.13;;;;;;;17.72;57.62;97287.13;10414430;28;20023;-56
2022/09/15 04:15:10;;;;;;;7.22;2.85;;;;;;;17.70;57.64;97291.56;10413827;28;20083;-56
2022/09/15 04:20:10;;;;;;;3.65;2.30;;;;;;;17.73;57.72;97273.94;10413994;28;20021;-56
2022/09/15 04:25:10;;;;;;;8.52;2.25;;;;;;;17.72;57.89;97253.84;10414639;28;20063;-56
2022/09/15 04:30:09;;;;;;;6.43;2.00;;;;;;;17.76;57.64;97255.47;10413404;28;20060;-56
2022/09/15 04:35:09;;;;;;;6.80;2.30;;;;;;;17.74;57.70;97245.94;10413231;28;20068;-56
2022/09/15 04:40:09;;;;;;;8.25;2.97;;;;;;;17.87;57.88;97256.84;10413681;28;20080;-56
2022/09/15 04:45:08;;;;;;;7.88;2.33;;;;;;;17.91;57.75;97268.94;10413776;28;20056;-56
2022/09/15 04:50:07;;;;;;;11.07;2.80;;;;;;;18.04;58.49;97275.44;10413359;28;20084;-56
2022/09/15 04:55:07;;;;;;;10.40;3.25;;;;;;;18.05;59.47;97278.91;10413172;28;20056;-56
2022/09/15 05:00:06;;;;;;;17.73;4.00;;;;;;;18.04;59.11;97278.06;10412923;28;20493;-56
2022/09/15 05:05:05;;;;;;;10.88;4.13;;;;;;;18.13;59.63;97276.88;10413595;28;20559;-56
2022/09/15 05:10:05;;;;;;;7.10;3.80;;;;;;;18.18;60.18;97273.13;10411586;28;20129;-56
2022/09/15 05:15:04;;;;;;;11.88;4.10;;;;;;;18.29;60.16;97282.34;10412620;28;20060;-56
2022/09/15 05:20:04;;;;;;;11.57;3.80;;;;;;;18.41;59.57;97268.75;10413406;28;20536;-56
2022/09/15 05:25:04;;;;;;;13.25;4.43;;;;;;;18.50;60.39;97264.88;10411272;28;20067;-56
2022/09/15 05:30:04;;;;;;;11.10;3.83;;;;;;;18.68;60.31;97264.16;10397770;28;20476;-56
2022/09/15 05:35:05;;;;;;;10.05;4.15;;;;;;;18.86;59.78;97257.28;10421078;28;20068;-56
2022/09/15 05:40:04;;;;;;;16.95;5.40;;;;;;;19.00;60.44;97268.06;10421904;28;20083;-56
2022/09/15 05:45:04;;;;;;;21.58;6.15;;;;;;;19.11;61.59;97258.84;10422115;28;20052;-56
2022/09/15 05:50:03;;;;;;;19.33;7.65;;;;;;;19.29;61.07;97246.66;10421517;28;20079;-56
2022/09/15 05:55:02;;;;;;;19.92;6.85;;;;;;;19.47;60.63;97221.31;10421779;28;20064;-56
2022/09/15 06:00:02;;;;;;;6.75;3.88;;;;;;;19.62;60.13;97215.38;10420502;28;20418;-56
2022/09/15 06:05:02;;;;;;;11.32;4.07;;;;;;;19.93;59.48;97221.84;10420945;28;20068;-56
2022/09/15 06:10:02;;;;;;;9.73;3.97;;;;;;;20.16;58.77;97215.47;10420147;28;20064;-56
2022/09/15 06:15:01;;;;;;;9.10;4.00;;;;;;;20.47;58.51;97223.66;10419858;28;20078;-56
2022/09/15 06:20:04;;;;;;;9.75;3.08;;;;;;;20.74;57.88;97219.72;10420700;28;20083;-56
2022/09/15 06:25:05;;;;;;;11.23;3.60;;;;;;;20.99;56.89;97217.53;10420261;28;20064;-56
2022/09/15 06:30:05;;;;;;;9.90;4.82;;;;;;;21.30;54.19;97223.88;10419672;28;20056;-56
2022/09/15 06:35:07;;;;;;;8.95;6.50;;;;;;;21.63;52.15;97223.00;10418871;28;20158;-57
2022/09/15 06:40:07;;;;;;;9.73;4.80;;;;;;;21.98;52.10;97218.44;10418987;28;20429;-57
2022/09/15 06:45:06;;;;;;;9.77;3.33;;;;;;;22.22;50.45;97210.94;10419381;28;20511;-57
2022/09/15 06:50:06;;;;;;;8.98;3.72;;;;;;;22.55;48.46;97209.94;10419711;28;20088;-57
2022/09/15 06:55:05;;;;;;;11.63;3.15;;;;;;;22.79;48.07;97216.50;10419037;28;20076;-56
2022/09/15 07:00:05;;;;;;;9.75;3.85;;;;;;;22.99;48.93;97212.63;10419310;28;20059;-55
2022/09/15 07:05:05;;;;;;;6.85;3.28;;;;;;;23.14;47.88;97217.94;10418390;28;20060;-55
2022/09/15 07:10:05;;;;;;;9.60;3.70;;;;;;;23.38;46.99;97228.88;10418129;28;20075;-55
2022/09/15 07:15:04;;;;;;;5.13;2.67;;;;;;;23.52;46.85;97228.91;10417708;28;20083;-55
2022/09/15 07:20:03;;;;;;;8.57;3.75;;;;;;;23.68;46.43;97239.41;10418464;28;20564;-54
2022/09/15 07:25:03;;;;;;;5.80;2.17;;;;;;;23.85;45.41;97257.72;10418674;28;20063;-55
2022/09/15 07:30:02;;;;;;;7.22;2.53;;;;;;;24.07;45.05;97253.72;10417532;28;20438;-55
2022/09/15 07:35:02;;;;;;;6.07;3.00;;;;;;;24.27;44.79;97261.28;10417762;28;20071;-55
2022/09/15 07:40:01;;;;;;;7.68;2.97;;;;;;;24.51;44.16;97265.94;10416833;28;20068;-55
2022/09/15 07:45:00;;;;;;;8.07;2.92;;;;;;;24.64;43.68;97271.31;10417036;28;20064;-55
2022/09/15 07:49:59;;;;;;;9.07;3.70;;;;;;;24.92;42.69;97273.03;10416025;28;20079;-55
2022/09/15 07:54:58;;;;;;;14.77;4.28;;;;;;;25.17;43.78;97269.53;10416135;28;20040;-55
2022/09/15 07:59:57;;;;;;;13.70;4.10;;;;;;;25.28;43.30;97268.81;10416776;28;20547;-55
2022/09/15 08:04:56;;;;;;;8.70;3.50;;;;;;;25.51;40.00;97262.78;10398455;28;20414;-55
2022/09/15 08:09:55;;;;;;;12.85;4.18;;;;;;;25.79;41.40;97257.38;10397613;28;20093;-55
2022/09/15 08:14:54;;;;;;;11.25;3.72;;;;;;;26.02;40.90;97251.28;10415947;28;20028;-55
2022/09/15 08:19:53;;;;;;;7.13;3.33;;;;;;;26.27;41.48;97249.53;10414917;28;20530;-55
2022/09/15 08:24:52;;;;;;;7.50;2.60;;;;;;;26.46;40.67;97257.00;10415421;28;20116;-55
2022/09/15 08:29:51;;;;;;;5.40;2.67;;;;;;;26.70;38.83;97257.84;10414754;28;20067;-55
2022/09/15 08:34:50;;;;;;;18.63;3.20;;;;;;;27.01;38.82;97266.25;10415807;28;20103;-55
2022/09/15 08:39:49;;;;;;;6.35;2.70;;;;;;;27.27;38.34;97256.25;10414945;28;20064;-55
2022/09/15 08:45:03;;;;;;;5.18;2.85;;;;;;;27.41;37.31;97245.38;10415226;28;20031;-55
2022/09/15 08:50:26;;;;;;;6.63;3.03;;;;;;;27.68;33.27;97249.56;10413694;28;20079;-55
2022/09/15 08:55:48;;;;;;;10.88;5.20;;;;;;;27.98;31.12;97219.59;10413889;28;20076;-55
2022/09/15 09:00:50;;;;;;;10.43;4.35;;;;;;;28.42;30.58;97238.34;10414652;28;20063;-55
2022/09/15 09:06:06;;;;;;;8.82;2.65;;;;;;;28.72;30.34;97226.13;10395641;28;20068;-56
2022/09/15 09:11:11;;;;;;;7.55;4.03;;;;;;;28.91;31.40;97225.44;10399996;28;20051;-56
2022/09/15 09:16:32;;;;;;;6.13;2.33;;;;;;;29.02;30.42;97209.38;10391562;28;20480;-56
2022/09/15 09:21:45;;;;;;;5.45;2.45;;;;;;;29.19;29.94;97202.56;10372962;28;20060;-56
2022/09/15 09:26:48;;;;;;;8.82;2.92;;;;;;;29.40;28.61;97192.72;10372422;28;20061;-56
2022/09/15 09:31:50;;;;;;;12.52;3.38;;;;;;;29.82;29.14;97179.25;10372723;28;20100;-55
2022/09/15 09:37:07;;;;;;;11.57;4.70;;;;;;;30.06;27.01;97180.75;10371936;28;20072;-55
2022/09/15 09:42:13;;;;;;;9.32;3.20;;;;;;;30.40;28.43;97180.34;10390018;28;20083;-56
2022/09/15 09:47:12;;;;;;;5.65;2.35;;;;;;;30.53;28.09;97181.81;10412950;28;20603;-55
2022/09/15 09:52:11;;;;;;;7.55;2.42;;;;;;;30.62;28.29;97180.13;10413016;28;20096;-56
2022/09/15 09:57:13;;;;;;;9.52;2.10;;;;;;;30.55;27.02;97195.91;10414184;28;20068;-55
2022/09/15 10:02:26;;;;;;;10.13;2.90;;;;;;;30.69;26.40;97191.97;10414205;28;20083;-56
2022/09/15 10:07:25;;;;;;;7.75;2.38;;;;;;;30.84;26.18;97188.84;10413106;28;20063;-56
2022/09/15 10:12:29;;;;;;;9.23;2.70;;;;;;;31.05;25.39;97175.31;10412268;28;20076;-55
2022/09/15 10:17:46;;;;;;;13.25;2.78;;;;;;;31.03;23.54;97180.84;10413824;28;20083;-56
2022/09/15 10:22:45;;;;;;;8.90;3.40;;;;;;;31.13;25.63;97168.25;10415009;28;20071;-56
2022/09/15 10:27:44;;;;;;;6.97;2.40;;;;;;;31.17;25.76;97168.78;10415733;28;20036;-55
2022/09/15 10:32:43;;;;;;;9.00;2.42;;;;;;;31.29;24.59;97158.78;10418743;28;20068;-56
2022/09/15 10:37:51;;;;;;;11.38;2.63;;;;;;;31.44;23.74;97159.13;10419128;28;20044;-56
2022/09/15 10:43:06;;;;;;;7.90;2.80;;;;;;;31.57;23.71;97151.63;10418840;28;20080;-56
2022/09/15 10:48:27;;;;;;;14.02;3.00;;;;;;;31.92;24.69;97147.31;10418983;28;20953;-56
2022/09/15 10:53:45;;;;;;;9.32;3.20;;;;;;;32.25;24.58;97140.53;10418893;28;20064;-55
2022/09/15 10:59:09;;;;;;;10.47;3.07;;;;;;;32.57;24.48;97142.66;10418134;28;20463;-55
2022/09/15 11:04:16;;;;;;;9.23;2.95;;;;;;;32.82;23.47;97157.16;10415488;28;20067;-55
2022/09/15 11:09:19;;;;;;;;;;;;;;;32.93;24.05;97136.44;10400083;28;20095;-55
2022/09/15 11:14:36;;;;;;;11.43;3.55;;;;;;;32.87;24.56;97143.25;10416829;28;19956;-55
2022/09/15 11:20:24;;;;;;;14.98;3.17;;;;;;;32.85;25.31;97143.41;10399529;28;20086;-56
2022/09/15 11:25:28;;;;;;;10.15;3.42;;;;;;;32.67;24.25;97139.94;10354299;28;20087;-56
2022/09/15 11:30:55;;;;;;;7.97;3.20;;;;;;;32.42;24.82;97142.34;10414621;28;20075;-56
2022/09/15 11:36:36;;;;;;;6.47;2.75;;;;;;;32.21;25.26;97131.06;10409570;28;20068;-56
2022/09/15 11:42:03;;;;;;;10.05;3.60;;;;;;;31.94;26.56;97130.13;10364148;28;20091;-56
2022/09/15 11:47:32;;;;;;;12.68;3.40;;;;;;;31.70;25.98;97137.88;10408313;28;20075;-56
2022/09/15 11:52:50;;;;;;;6.32;3.10;;;;;;;31.59;26.87;97128.16;10417458;28;20080;-56
2022/09/15 11:58:00;;;;;;;13.03;2.80;;;;;;;31.62;28.50;97129.72;10417271;28;20080;-56
2022/09/15 12:03:17;;;;;;;8.10;2.70;;;;;;;31.62;26.21;97119.84;10414011;28;20080;-56
2022/09/15 12:08:42;;;;;;;9.52;2.75;;;;;;;31.82;25.11;97117.03;10413638;28;20080;-56
2022/09/15 12:13:41;;;;;;;10.70;4.20;;;;;;;31.86;25.42;97107.69;10414729;28;20496;-56
2022/09/15 12:18:59;;;;;;;9.25;3.13;;;;;;;31.77;25.74;97102.22;10411067;28;20514;-56
2022/09/15 12:24:01;;;;;;;10.65;2.85;;;;;;;31.64;26.40;97091.03;10410957;28;20064;-56
2022/09/15 12:29:03;;;;;;;10.65;2.65;;;;;;;31.54;26.67;97082.19;10410560;28;20076;-56
2022/09/15 12:34:04;;;;;;;8.80;2.65;;;;;;;31.54;27.55;97084.88;10414433;28;20527;-56
2022/09/15 12:39:35;;;;;;;13.85;2.30;;;;;;;31.48;27.72;97086.28;10413625;28;20076;-56
2022/09/15 12:44:43;;;;;;;5.38;2.15;;;;;;;31.43;27.22;97077.84;10414860;28;20076;-56
2022/09/15 12:49:45;;;;;;;6.88;2.33;;;;;;;31.41;26.40;97065.59;10414008;28;20083;-56
2022/09/15 12:54:52;;;;;;;9.88;2.90;;;;;;;31.61;27.11;97059.13;10414584;28;20072;-56
2022/09/15 13:00:24;;;;;;;10.73;2.40;;;;;;;31.70;25.63;97058.22;10414574;28;20067;-56
2022/09/15 13:05:41;;;;;;;9.38;2.45;;;;;;;31.89;25.64;97049.19;10414223;28;20068;-55
2022/09/15 13:11:03;;;;;;;8.63;2.88;;;;;;;32.27;24.50;97047.25;10413337;28;20068;-56
2022/09/15 13:16:07;;;;;;;13.55;3.75;;;;;;;32.39;24.09;97045.16;10413728;28;20083;-56
2022/09/15 13:21:13;;;;;;;14.50;7.72;;;;;;;32.59;23.90;97049.34;10414014;28;20090;-56
2022/09/15 13:26:18;;;;;;;9.10;3.47;;;;;;;32.81;24.10;97039.94;10412654;28;20068;-56
2022/09/15 13:31:33;;;;;;;9.13;3.17;;;;;;;32.93;24.66;97034.28;10412532;28;20072;-56
2022/09/15 13:36:42;;;;;;;6.82;2.80;;;;;;;32.93;24.08;97040.50;10412941;28;20088;-56
2022/09/15 13:41:44;;;;;;;7.50;2.83;;;;;;;33.06;24.91;97029.31;10414013;28;20071;-54
2022/09/15 13:47:02;;;;;;;9.13;2.85;;;;;;;33.14;24.37;97029.38;10412474;28;20079;-57
2022/09/15 13:52:40;;;;;;;10.90;2.40;;;;;;;33.19;24.77;97027.06;10417592;28;20084;-54
2022/09/15 13:57:43;;;;;;;7.25;2.72;;;;;;;33.17;24.85;97028.22;10420447;28;20080;-56
2022/09/15 14:02:49;;;;;;;8.90;2.80;;;;;;;33.15;24.94;97011.41;10421220;28;20079;-54
2022/09/15 14:08:08;;;;;;;6.93;3.08;;;;;;;33.06;25.55;97005.09;10420108;28;20073;-54
2022/09/15 14:13:13;;;;;;;10.48;3.47;;;;;;;32.95;25.25;97002.69;10420872;28;20068;-54
2022/09/15 14:18:18;;;;;;;8.13;2.60;;;;;;;32.88;25.26;97015.97;10420464;28;20436;-54
2022/09/15 14:23:18;;;;;;;10.25;2.67;;;;;;;32.78;26.27;97007.16;10420282;28;20475;-56
2022/09/15 14:28:26;;;;;;;10.07;2.85;;;;;;;32.72;26.10;96999.75;10402050;28;20119;-56
2022/09/15 14:33:32;;;;;;;9.45;3.10;;;;;;;32.54;25.64;96983.66;10421181;28;20118;-56
2022/09/15 14:38:31;;;;;;;9.50;2.35;;;;;;;32.54;24.91;96992.53;10401442;28;20133;-56
2022/09/15 14:43:38;;;;;;;11.43;3.35;;;;;;;32.57;25.28;96988.72;10420535;28;20112;-56
2022/09/15 14:48:37;;;;;;;9.65;2.35;;;;;;;32.57;25.03;96981.50;10418449;28;20072;-56
2022/09/15 14:53:38;;;;;;;7.75;2.50;;;;;;;32.55;25.27;96986.19;10418747;28;20056;-56
2022/09/15 14:58:58;;;;;;;9.93;2.90;;;;;;;32.51;25.29;96986.66;10417217;28;20068;-56
2022/09/15 15:04:08;;;;;;;8.13;2.60;;;;;;;32.57;25.63;96980.66;10416811;28;20079;-56
2022/09/15 15:09:13;;;;;;;10.00;2.70;;;;;;;32.55;26.18;96977.25;10417926;28;20480;-57
2022/09/15 15:14:13;;;;;;;16.38;3.50;;;;;;;32.31;27.80;96959.16;10416735;28;20120;-56
2022/09/15 15:19:39;;;;;;;13.35;3.40;;;;;;;32.08;28.82;96985.66;10416991;28;20503;-56
2022/09/15 15:24:45;;;;;;;10.30;3.72;;;;;;;31.69;30.58;96984.13;10389046;28;20565;-56
2022/09/15 15:29:45;;;;;;;14.63;4.18;;;;;;;31.27;31.13;96981.13;10399119;28;20127;-56
2022/09/15 15:35:03;;;;;;;12.45;3.30;;;;;;;30.97;32.10;96975.09;10416882;28;20060;-56
2022/09/15 15:40:05;;;;;;;14.07;3.00;;;;;;;30.73;32.39;96970.22;10416170;28;20186;-56
2022/09/15 15:45:08;;;;;;;10.85;3.42;;;;;;;30.47;32.46;96975.41;10415753;28;20072;-56
2022/09/15 15:50:13;;;;;;;10.85;4.05;;;;;;;30.21;33.75;96984.00;10415272;28;20079;-56
2022/09/15 15:55:15;;;;;;;9.70;3.30;;;;;;;29.84;35.08;97002.63;10416535;28;20070;-56
2022/09/15 16:00:18;;;;;;;16.23;4.20;;;;;;;29.44;36.24;97004.38;10397197;28;20102;-56
2022/09/15 16:05:20;;;;;;;11.75;3.10;;;;;;;28.99;36.99;97009.25;10413944;28;20067;-56
2022/09/15 16:10:22;;;;;;;11.88;2.90;;;;;;;28.52;37.53;97012.38;10414207;28;20072;-56
2022/09/15 16:15:22;;;;;;;12.48;3.55;;;;;;;28.20;37.35;97021.31;10414834;28;20076;-56
2022/09/15 16:20:23;;;;;;;12.93;3.67;;;;;;;27.90;37.60;97023.88;10415064;28;20079;-56
2022/09/15 16:25:53;;;;;;;13.48;3.30;;;;;;;27.49;37.91;97012.94;10414894;28;20079;-56
2022/09/15 16:30:52;;;;;;;13.52;3.60;;;;;;;27.28;38.00;97007.50;10414541;28;20578;-56
2022/09/15 16:36:08;;;;;;;10.50;3.22;;;;;;;27.12;37.99;97017.72;10414123;28;20076;-56
2022/09/15 16:41:36;;;;;;;12.15;3.30;;;;;;;26.98;38.27;97019.69;10414889;28;20060;-56
2022/09/15 16:46:35;;;;;;;11.70;3.63;;;;;;;26.86;38.77;97025.09;10392085;28;20067;-56
2022/09/15 16:51:34;;;;;;;9.93;3.35;;;;;;;26.71;39.12;97032.47;10414299;28;20123;-56
2022/09/15 16:56:33;;;;;;;7.85;3.22;;;;;;;26.52;39.64;97025.91;10414237;28;20107;-56
2022/09/15 17:01:32;;;;;;;8.65;3.58;;;;;;;26.35;39.66;97027.22;10413534;28;20079;-56
2022/09/15 17:06:31;;;;;;;14.05;3.75;;;;;;;26.14;39.49;97042.97;10413293;28;20032;-56
2022/09/15 17:11:30;;;;;;;11.63;3.45;;;;;;;26.05;39.59;97048.13;10412975;28;20465;-56
2022/09/15 17:16:29;;;;;;;12.32;2.97;;;;;;;25.91;39.86;97035.88;10413915;28;20444;-57
2022/09/15 17:21:28;;;;;;;8.50;3.00;;;;;;;25.78;40.26;97019.97;10413528;28;20475;-56
2022/09/15 17:26:27;;;;;;;12.38;3.10;;;;;;;25.67;39.92;97020.78;10412314;28;20052;-56
2022/09/15 17:31:26;;;;;;;9.57;3.20;;;;;;;25.58;40.06;97010.00;10413851;28;20514;-56
2022/09/15 17:36:26;;;;;;;13.98;4.40;;;;;;;25.51;40.27;97017.53;10412622;28;20079;-56
2022/09/15 17:41:25;;;;;;;16.23;3.38;;;;;;;25.44;40.45;97018.94;10413426;28;20071;-56
2022/09/15 17:46:23;;;;;;;13.70;4.18;;;;;;;25.37;40.99;97007.06;10412192;28;20115;-56
2022/09/15 17:51:23;;;;;;;19.13;4.95;;;;;;;25.14;42.84;97020.19;10394955;28;20120;-56
2022/09/15 17:56:22;;;;;;;18.42;4.97;;;;;;;25.01;43.53;97024.66;10412241;28;20075;-56
2022/09/15 18:01:21;;;;;;;14.48;4.60;;;;;;;24.76;44.30;97038.81;10412597;28;20047;-56
2022/09/15 18:06:20;;;;;;;17.10;4.70;;;;;;;24.60;44.76;97045.16;10412605;28;20031;-56
2022/09/15 18:11:20;;;;;;;16.58;5.65;;;;;;;24.44;45.18;97048.00;10413398;28;20024;-56
2022/09/15 18:16:19;;;;;;;16.63;5.35;;;;;;;24.32;45.51;97055.97;10412169;28;20500;-56
2022/09/15 18:21:25;;;;;;;17.70;5.93;;;;;;;24.15;46.27;97057.09;10412717;28;20414;-56
2022/09/15 18:26:24;;;;;;;17.83;6.40;;;;;;;24.06;46.80;97038.19;10411934;28;20519;-56
2022/09/15 18:31:23;;;;;;;15.98;6.45;;;;;;;23.90;47.50;97044.59;10394072;28;20547;-56
2022/09/15 18:36:22;;;;;;;17.67;7.35;;;;;;;23.69;48.30;97039.75;10413698;28;20458;-56
2022/09/15 18:41:21;;;;;;;22.98;7.55;;;;;;;23.59;48.79;97030.72;10419382;28;20107;-56
2022/09/15 18:46:20;;;;;;;19.75;6.82;;;;;;;23.46;48.78;97027.97;10419101;28;20028;-56
2022/09/15 18:51:19;;;;;;;19.48;6.32;;;;;;;23.33;49.38;97027.09;10418995;28;20061;-56
2022/09/15 18:56:18;;;;;;;24.58;7.18;;;;;;;23.13;49.30;97042.44;10419322;28;20108;-56
2022/09/15 19:01:17;;;;;;;17.63;5.60;;;;;;;22.97;49.55;97031.09;10418370;28;20527;-56
2022/09/15 19:06:16;;;;;;;16.63;6.18;;;;;;;22.97;49.26;97020.53;10418659;28;20543;-56
2022/09/15 19:11:16;;;;;;;15.73;5.57;;;;;;;22.87;49.54;97009.66;10418845;28;20076;-56
2022/09/15 19:16:15;;;;;;;13.23;5.15;;;;;;;22.79;49.33;96998.72;10417205;28;20102;-56
2022/09/15 19:21:14;;;;;;;16.40;4.90;;;;;;;22.68;49.64;96988.78;10417804;28;20028;-56
2022/09/15 19:26:15;;;;;;;14.48;4.65;;;;;;;22.48;49.78;96968.00;10417997;28;20052;-56
2022/09/15 19:31:14;;;;;;;20.15;5.07;;;;;;;22.46;50.16;96973.41;10417811;28;20071;-56
2022/09/15 19:36:13;;;;;;;12.30;3.35;;;;;;;22.31;49.60;96967.22;10417372;28;20072;-56
2022/09/15 19:41:15;;;;;;;10.50;4.00;;;;;;;22.21;49.75;96962.63;10417009;28;20035;-56
2022/09/15 19:46:18;;;;;;;14.07;5.43;;;;;;;21.88;52.12;96983.00;10416734;28;20064;-56
2022/09/15 19:51:19;;;;;;;14.65;4.80;;;;;;;21.80;52.53;96969.38;10415516;28;20091;-56
2022/09/15 19:56:21;;;;;;;20.05;4.63;;;;;;;21.55;54.01;96984.03;10416167;28;20060;-56
2022/09/15 20:01:21;;;;;;;17.67;5.18;;;;;;;21.33;55.63;96967.69;10415798;28;20068;-56
2022/09/15 20:06:22;;;;;;;17.58;6.30;;;;;;;21.16;56.20;96970.44;10415766;28;20525;-56
2022/09/15 20:11:21;;;;;;;13.95;5.72;;;;;;;21.08;56.23;96976.13;10416402;28;20056;-56
2022/09/15 20:16:21;;;;;;;19.70;7.78;;;;;;;20.99;56.78;96976.66;10416014;28;20107;-55
2022/09/15 20:21:23;;;;;;;14.57;4.75;;;;;;;20.86;57.02;96984.38;10415575;28;20055;-56
2022/09/15 20:26:23;;;;;;;11.40;4.18;;;;;;;20.81;56.13;96962.69;10414015;28;20094;-56
2022/09/15 20:31:24;;;;;;;14.65;4.60;;;;;;;20.97;55.29;96960.91;10396760;28;20072;-56
2022/09/15 20:36:29;;;;;;;11.90;4.07;;;;;;;20.92;54.02;96976.97;10414419;28;20072;-55
2022/09/15 20:41:30;;;;;;;11.18;3.40;;;;;;;21.09;53.51;96989.22;10413880;28;20072;-56
2022/09/15 20:46:30;;;;;;;14.18;3.92;;;;;;;21.12;53.14;96989.06;10413899;28;20071;-55
2022/09/15 20:51:30;;;;;;;12.55;4.15;;;;;;;21.12;52.89;96977.66;10414386;28;20087;-55
2022/09/15 20:56:33;;;;;;;13.73;3.13;;;;;;;21.10;52.78;96975.13;10413976;28;20076;-56
2022/09/15 21:01:37;;;;;;;9.38;3.70;;;;;;;21.10;52.48;96975.13;10412800;28;20063;-56
2022/09/15 21:06:36;;;;;;;8.35;3.13;;;;;;;21.08;52.24;96976.13;10413592;28;20472;-56
2022/09/15 21:11:35;;;;;;;13.50;3.78;;;;;;;21.03;52.08;96980.78;10413519;28;20504;-56
2022/09/15 21:16:34;;;;;;;6.35;2.85;;;;;;;20.73;53.56;96992.09;10413241;28;20500;-56
2022/09/15 21:21:34;;;;;;;13.20;3.50;;;;;;;20.44;54.20;97001.56;10413378;28;20504;-55
2022/09/15 21:27:25;;;;;;;11.32;4.03;;;;;;;20.47;54.18;97011.94;10413441;28;20056;-56
2022/09/15 21:31:54;;;;;;;5.93;2.50;;;;;;;20.73;52.69;97013.19;10413540;28;20074;-55
2022/09/15 21:36:53;;;;;;;11.55;3.35;;;;;;;20.90;52.25;97007.84;10412761;28;20040;-55
2022/09/15 21:41:52;;;;;;;11.02;3.08;;;;;;;21.03;51.88;97000.13;10412847;28;20068;-55
2022/09/15 21:46:51;;;;;;;7.45;3.03;;;;;;;21.06;51.85;97005.22;10413215;28;20068;-56
2022/09/15 21:51:50;;;;;;;9.20;3.05;;;;;;;21.11;51.58;96997.91;10413172;28;20082;-55
2022/09/15 21:56:49;;;;;;;10.43;3.05;;;;;;;21.09;51.29;96994.50;10412719;28;20423;-56
2022/09/15 22:01:48;;;;;;;9.68;2.95;;;;;;;21.13;51.52;97003.09;10412605;28;20059;-56
2022/09/15 22:06:49;;;;;;;8.27;3.20;;;;;;;20.96;52.51;97011.97;10412433;28;20029;-55
2022/09/15 22:11:47;;;;;;;9.10;3.33;;;;;;;20.77;54.27;97027.06;10414739;28;20147;-55
2022/09/15 22:16:46;;;;;;;11.52;3.85;;;;;;;20.58;55.15;97022.75;10420933;28;20033;-55
2022/09/15 22:21:45;;;;;;;14.18;3.78;;;;;;;20.40;55.89;97010.53;10421050;28;20519;-56
2022/09/15 22:26:44;;;;;;;18.50;4.32;;;;;;;20.36;56.01;97016.91;10419768;28;20476;-55
2022/09/15 22:31:43;;;;;;;12.93;3.65;;;;;;;20.29;56.52;97005.81;10418942;28;20066;-56
2022/09/15 22:36:42;;;;;;;9.55;3.50;;;;;;;20.23;56.53;97009.59;10419934;28;20025;-55
2022/09/15 22:41:41;;;;;;;11.45;3.83;;;;;;;20.29;56.42;97009.31;10418743;28;20507;-55
2022/09/15 22:46:40;;;;;;;12.90;3.65;;;;;;;20.33;55.43;97004.75;10418965;28;20531;-55
2022/09/15 22:51:39;;;;;;;15.63;3.65;;;;;;;20.49;55.04;97000.41;10419380;28;20596;-55
2022/09/15 22:56:38;;;;;;;14.38;3.78;;;;;;;20.69;53.89;97007.22;10419240;28;20060;-55
2022/09/15 23:01:37;;;;;;;7.25;2.90;;;;;;;20.90;52.94;97002.56;10418219;28;20120;-55
2022/09/15 23:06:36;;;;;;;12.75;3.83;;;;;;;21.10;52.09;97005.91;10417855;28;20104;-56
2022/09/15 23:11:38;;;;;;;13.40;3.50;;;;;;;21.23;51.45;96995.56;10418746;28;20024;-55
2022/09/15 23:16:37;;;;;;;11.43;3.40;;;;;;;21.35;51.13;96994.84;10417349;28;20076;-55
2022/09/15 23:21:36;;;;;;;11.38;3.30;;;;;;;21.45;50.73;96996.06;10417291;28;20051;-56
2022/09/15 23:26:35;;;;;;;12.98;4.13;;;;;;;21.51;50.44;96990.41;10417657;28;20034;-56